| time (UTC) | temp F | wind direction | speed knots | gust knots | rain 1hr in | rain 24hr in | rain mn in | humidity % | barometer mb |
| 20260510124120 | 69 | 0 | 0.0 | 0.0 | 0.00 | 0.01 | 0.00 | 86 | 1010.4 |
| 20260510123121 | 69 | 239 | 0.0 | 0.9 | 0.00 | 0.01 | 0.00 | 86 | 1010.4 |
| 20260510121121 | 69 | 0 | 0.0 | 0.0 | 0.00 | 0.03 | 0.00 | 84 | 1010.3 |
| 20260510120120 | 69 | 231 | 0.0 | 0.0 | 0.00 | 0.03 | 0.00 | 84 | 1010.3 |
| 20260510115121 | 69 | 0 | 0.0 | 0.0 | 0.00 | 0.03 | 0.00 | 84 | 1010.2 |
| 20260510113120 | 69 | 0 | 0.0 | 0.0 | 0.00 | 0.03 | 0.00 | 83 | 1010.2 |
| 20260510112121 | 70 | 0 | 0.0 | 0.0 | 0.00 | 0.03 | 0.00 | 83 | 1010.1 |
| 20260510111120 | 70 | 0 | 0.0 | 0.0 | 0.00 | 0.03 | 0.00 | 81 | 1010.1 |
| 20260510110120 | 70 | 0 | 0.0 | 0.0 | 0.00 | 0.03 | 0.00 | 81 | 1010.2 |
| 20260510105120 | 70 | 0 | 0.0 | 0.0 | 0.00 | 0.03 | 0.00 | 81 | 1010.1 |
| 20260510104121 | 70 | 0 | 0.0 | 0.0 | 0.00 | 0.03 | 0.00 | 80 | 1010.2 |
| 20260510102120 | 71 | 0 | 0.0 | 0.0 | 0.00 | 0.03 | 0.00 | 80 | 1010.3 |
| 20260510100121 | 71 | 0 | 0.0 | 0.0 | 0.00 | 0.03 | 0.00 | 78 | 1010.1 |
| 20260510093120 | 72 | 0 | 0.0 | 0.0 | 0.00 | 0.03 | 0.00 | 77 | 1009.8 |
| 20260510092120 | 72 | 0 | 0.0 | 0.0 | 0.00 | 0.03 | 0.00 | 77 | 1009.5 |
| 20260510091120 | 72 | 0 | 0.0 | 0.0 | 0.00 | 0.03 | 0.00 | 77 | 1009.5 |
| 20260510085120 | 73 | 0 | 0.0 | 0.0 | 0.00 | 0.03 | 0.00 | 75 | 1009.5 |
| 20260510083120 | 73 | 0 | 0.0 | 0.0 | 0.00 | 0.03 | 0.00 | 73 | 1009.4 |
| 20260510082121 | 74 | 0 | 0.0 | 0.0 | 0.00 | 0.03 | 0.00 | 73 | 1009.4 |
| 20260510080120 | 75 | 0 | 0.0 | 0.0 | 0.00 | 0.03 | 0.00 | 71 | 1009.3 |
| 20260510075120 | 75 | 0 | 0.0 | 0.0 | 0.00 | 0.03 | 0.00 | 70 | 1009.1 |
| 20260510073122 | 76 | 207 | 0.0 | 0.9 | 0.00 | 0.03 | 0.00 | 69 | 1009.1 |
| 20260510072120 | 76 | 191 | 0.0 | 1.7 | 0.00 | 0.03 | 0.00 | 68 | 1009.2 |
| 20260510071120 | 76 | 162 | 0.0 | 1.7 | 0.00 | 0.03 | 0.00 | 68 | 1009.2 |
| 20260510070121 | 77 | 190 | 0.0 | 2.6 | 0.00 | 0.03 | 0.00 | 68 | 1009.2 |
| 20260510065120 | 77 | 189 | 0.9 | 4.3 | 0.00 | 0.03 | 0.00 | 68 | 1009.1 |
| 20260510064120 | 77 | 181 | 0.0 | 3.5 | 0.00 | 0.03 | 0.00 | 69 | 1009.1 |
| 20260510063120 | 77 | 195 | 0.0 | 1.7 | 0.00 | 0.03 | 0.00 | 69 | 1009.3 |
| 20260510061121 | 78 | 194 | 0.0 | 1.7 | 0.00 | 0.03 | 0.00 | 68 | 1009.3 |
| 20260510060120 | 78 | 210 | 0.0 | 0.0 | 0.00 | 0.03 | 0.00 | 66 | 1009.2 |
| 20260510055120 | 79 | 182 | 0.0 | 1.7 | 0.00 | 0.03 | 0.00 | 66 | 1009.1 |
| 20260510051120 | 80 | 192 | 0.9 | 5.2 | 0.00 | 0.03 | 0.00 | 64 | 1008.5 |
| 20260510045120 | 80 | 183 | 0.9 | 7.0 | 0.00 | 0.03 | 0.03 | 62 | 1008.3 |
| 20260510043120 | 80 | 196 | 0.0 | 3.5 | 0.00 | 0.03 | 0.03 | 62 | 1008.3 |
| 20260510040121 | 80 | 197 | 0.0 | 0.9 | 0.00 | 0.03 | 0.03 | 62 | 1008.0 |
| 20260510035120 | 80 | 211 | 0.0 | 0.0 | 0.00 | 0.03 | 0.03 | 62 | 1007.9 |
| 20260510031120 | 82 | 0 | 0.0 | 0.0 | 0.00 | 0.03 | 0.03 | 58 | 1007.5 |
| 20260510030121 | 83 | 0 | 0.0 | 0.0 | 0.00 | 0.03 | 0.03 | 57 | 1007.4 |
| 20260510025120 | 83 | 0 | 0.0 | 0.0 | 0.00 | 0.03 | 0.03 | 56 | 1007.4 |
| 20260510024120 | 83 | 208 | 0.0 | 0.0 | 0.00 | 0.03 | 0.03 | 56 | 1007.1 |
| 20260510023120 | 84 | 214 | 0.0 | 0.9 | 0.00 | 0.03 | 0.03 | 55 | 1007.0 |
| 20260510022120 | 84 | 197 | 0.0 | 0.9 | 0.00 | 0.03 | 0.03 | 55 | 1006.9 |
| 20260510021121 | 84 | 195 | 0.0 | 1.7 | 0.00 | 0.03 | 0.03 | 55 | 1006.8 |
| 20260510020120 | 85 | 181 | 0.0 | 4.3 | 0.00 | 0.03 | 0.03 | 53 | 1006.6 |
| 20260510015120 | 85 | 195 | 0.0 | 1.7 | 0.00 | 0.03 | 0.03 | 53 | 1006.5 |
| 20260510014121 | 85 | 195 | 0.0 | 1.7 | 0.00 | 0.03 | 0.03 | 52 | 1006.2 |
| 20260510013120 | 85 | 185 | 0.0 | 1.7 | 0.00 | 0.03 | 0.03 | 50 | 1005.9 |
| 20260510012120 | 86 | 196 | 0.0 | 3.5 | 0.00 | 0.03 | 0.03 | 50 | 1005.8 |
| 20260510011121 | 86 | 196 | 0.0 | 2.6 | 0.00 | 0.03 | 0.03 | 49 | 1005.6 |
| 20260510010120 | 87 | 186 | 0.0 | 1.7 | 0.00 | 0.03 | 0.03 | 49 | 1005.4 |
| 20260510005120 | 87 | 187 | 0.9 | 3.5 | 0.00 | 0.03 | 0.03 | 49 | 1005.3 |
| 20260510003121 | 88 | 190 | 1.7 | 5.2 | 0.00 | 0.03 | 0.03 | 47 | 1004.9 |
| 20260510001621 | 88 | 190 | 0.9 | 4.3 | 0.00 | 0.03 | 0.03 | 47 | 1004.8 |
| 20260510000621 | 88 | 186 | 2.6 | 5.2 | 0.00 | 0.03 | 0.03 | 46 | 1004.9 |
| 20260509235622 | 89 | 187 | 0.9 | 5.2 | 0.00 | 0.03 | 0.03 | 46 | 1004.9 |
| 20260509233621 | 89 | 193 | 0.0 | 2.6 | 0.00 | 0.03 | 0.03 | 46 | 1005.0 |
| 20260509232621 | 89 | 188 | 0.9 | 3.5 | 0.00 | 0.03 | 0.03 | 46 | 1005.0 |
| 20260509231621 | 89 | 193 | 0.9 | 2.6 | 0.00 | 0.03 | 0.03 | 45 | 1005.0 |
| 20260509230621 | 89 | 78 | 0.0 | 1.7 | 0.00 | 0.03 | 0.03 | 42 | 1004.9 |
| 20260509225620 | 89 | 183 | 0.0 | 2.6 | 0.00 | 0.03 | 0.03 | 45 | 1004.8 |
| 20260509223621 | 90 | 218 | 0.0 | 2.6 | 0.00 | 0.03 | 0.03 | 45 | 1004.8 |
| 20260509222621 | 90 | 186 | 0.9 | 3.5 | 0.00 | 0.03 | 0.03 | 43 | 1004.8 |
| 20260509221621 | 90 | 211 | 0.0 | 2.6 | 0.00 | 0.03 | 0.03 | 44 | 1004.8 |
| 20260509220621 | 90 | 211 | 0.9 | 3.5 | 0.00 | 0.03 | 0.03 | 46 | 1004.9 |
| 20260509215620 | 90 | 191 | 0.9 | 3.5 | 0.00 | 0.03 | 0.03 | 45 | 1004.9 |
| 20260509214621 | 90 | 211 | 0.9 | 2.6 | 0.00 | 0.03 | 0.03 | 44 | 1005.0 |
| 20260509213621 | 89 | 227 | 0.0 | 1.7 | 0.00 | 0.03 | 0.03 | 45 | 1005.0 |
| 20260509212620 | 89 | 199 | 0.9 | 2.6 | 0.00 | 0.03 | 0.03 | 45 | 1005.2 |
| 20260509211621 | 90 | 195 | 0.9 | 4.3 | 0.00 | 0.03 | 0.03 | 45 | 1005.3 |
| 20260509210620 | 90 | 190 | 1.7 | 4.3 | 0.00 | 0.03 | 0.03 | 45 | 1005.4 |
| 20260509205620 | 89 | 217 | 0.0 | 2.6 | 0.00 | 0.03 | 0.03 | 46 | 1005.5 |
| 20260509204622 | 89 | 184 | 1.7 | 5.2 | 0.00 | 0.03 | 0.03 | 47 | 1005.7 |
| 20260509203621 | 89 | 201 | 1.7 | 4.3 | 0.00 | 0.03 | 0.03 | 48 | 1005.9 |
| 20260509202621 | 89 | 228 | 0.9 | 2.6 | 0.00 | 0.03 | 0.03 | 51 | 1006.1 |
| 20260509201621 | 88 | 185 | 1.7 | 4.3 | 0.00 | 0.03 | 0.03 | 51 | 1006.4 |
| 20260509200621 | 88 | 186 | 0.9 | 4.3 | 0.00 | 0.03 | 0.03 | 52 | 1006.5 |
| 20260509195621 | 88 | 206 | 0.9 | 4.3 | 0.00 | 0.03 | 0.03 | 53 | 1006.7 |
| 20260509194621 | 88 | 186 | 0.9 | 4.3 | 0.00 | 0.03 | 0.03 | 55 | 1007.0 |
| 20260509193621 | 88 | 223 | 0.0 | 3.5 | 0.00 | 0.03 | 0.03 | 56 | 1007.1 |
| 20260509191621 | 87 | 247 | 0.9 | 2.6 | 0.00 | 0.03 | 0.03 | 58 | 1007.3 |
| 20260509190621 | 86 | 245 | 0.9 | 3.5 | 0.00 | 0.03 | 0.03 | 58 | 1007.4 |
| 20260509185620 | 87 | 204 | 0.9 | 3.5 | 0.00 | 0.03 | 0.03 | 56 | 1007.4 |
| 20260509184621 | 87 | 213 | 0.9 | 4.3 | 0.00 | 0.03 | 0.03 | 59 | 1007.5 |
| 20260509183620 | 86 | 213 | 1.7 | 7.0 | 0.00 | 0.03 | 0.03 | 59 | 1007.7 |
| 20260509182621 | 85 | 196 | 0.9 | 3.5 | 0.00 | 0.03 | 0.03 | 58 | 1007.7 |
| 20260509181620 | 85 | 209 | 0.9 | 3.5 | 0.00 | 0.03 | 0.03 | 58 | 1008.0 |
| 20260509180621 | 85 | 192 | 1.7 | 6.1 | 0.00 | 0.03 | 0.03 | 60 | 1008.2 |
| 20260509175620 | 84 | 204 | 1.7 | 6.1 | 0.00 | 0.03 | 0.03 | 64 | 1008.3 |
| 20260509174621 | 84 | 226 | 0.9 | 4.3 | 0.00 | 0.03 | 0.03 | 66 | 1008.4 |
| 20260509173621 | 83 | 221 | 0.9 | 3.5 | 0.00 | 0.03 | 0.03 | 70 | 1008.6 |
| 20260509172621 | 82 | 205 | 0.9 | 5.2 | 0.00 | 0.03 | 0.03 | 73 | 1008.7 |
| 20260509171621 | 82 | 203 | 0.9 | 4.3 | 0.00 | 0.03 | 0.03 | 73 | 1008.9 |
| 20260509170622 | 81 | 222 | 0.9 | 1.7 | 0.00 | 0.03 | 0.03 | 77 | 1008.9 |
| 20260509165621 | 80 | 233 | 0.9 | 1.7 | 0.00 | 0.03 | 0.03 | 80 | 1009.0 |
| 20260509164622 | 79 | 197 | 0.9 | 3.5 | 0.00 | 0.03 | 0.03 | 83 | 1009.0 |
| 20260509162620 | 78 | 213 | 0.9 | 2.6 | 0.01 | 0.03 | 0.03 | 87 | 1009.0 |
| 20260509160621 | 77 | 217 | 0.9 | 3.5 | 0.01 | 0.03 | 0.03 | 91 | 1009.5 |
| 20260509155621 | 77 | 178 | 0.9 | 4.3 | 0.01 | 0.03 | 0.03 | 93 | 1009.6 |
| 20260509154621 | 76 | 213 | 0.0 | 0.9 | 0.00 | 0.02 | 0.02 | 94 | 1009.9 |
| 20260509153621 | 75 | 185 | 1.7 | 6.1 | 0.00 | 0.01 | 0.01 | 94 | 1010.0 |
| 20260509152621 | 75 | 189 | 0.9 | 3.5 | 0.00 | 0.01 | 0.01 | 94 | 1010.0 |
| 20260509150621 | 74 | 201 | 0.0 | 1.7 | 0.00 | 0.01 | 0.01 | 94 | 1010.1 |
| 20260509145620 | 75 | 188 | 0.0 | 2.6 | 0.00 | 0.01 | 0.01 | 95 | 1010.0 |
| 20260509144621 | 74 | 190 | 0.9 | 2.6 | 0.00 | 0.01 | 0.01 | 96 | 1009.9 |
| 20260509143621 | 74 | 204 | 0.0 | 0.9 | 0.00 | 0.01 | 0.01 | 96 | 1010.2 |
| 20260509142621 | 74 | 219 | 0.0 | 0.0 | 0.00 | 0.01 | 0.01 | 96 | 1010.2 |
| 20260509141621 | 73 | 206 | 0.0 | 0.9 | 0.00 | 0.01 | 0.01 | 96 | 1010.1 |
| 20260509140620 | 74 | 0 | 0.0 | 0.0 | 0.00 | 0.01 | 0.01 | 96 | 1009.7 |
| 20260509135621 | 74 | 189 | 0.0 | 0.9 | 0.00 | 0.01 | 0.01 | 96 | 1009.6 |
| 20260509134621 | 74 | 241 | 0.0 | 0.0 | 0.00 | 0.01 | 0.01 | 97 | 1009.1 |
| 20260509133621 | 73 | 352 | 0.0 | 2.6 | 0.00 | 0.01 | 0.01 | 97 | 1008.9 |
| 20260509132620 | 73 | 321 | 0.0 | 0.0 | 0.00 | 0.01 | 0.01 | 97 | 1009.2 |
| 20260509131621 | 73 | 234 | 0.0 | 0.9 | 0.01 | 0.01 | 0.01 | 97 | 1009.2 |